Time;durP1;ratioP1;P1;durP2;ratioP2;P2;SDS_P1;SDS_P2;PMS_P1;PMS_P2;Temp;Humidity;BMP_temperature;BMP_pressure;BME280_temperature;BME280_humidity;BME280_pressure;Samples;Min_cycle;Max_cycle;Signal;HPM_P1;HPM_P2
2023/10/07 00:00:56;;;;;;;16.02;3.40;;;;;;;-146.25;100.00;52422.94;2102650;28;35091;-64
2023/10/07 00:01:58;;;;;;;14.95;3.35;;;;;;;-146.25;100.00;52358.06;2097038;28;29600;-64
2023/10/07 00:03:00;;;;;;;15.07;3.35;;;;;;;-146.25;100.00;52364.13;2096795;28;34485;-63
2023/10/07 00:04:05;;;;;;;14.52;3.05;;;;;;;-146.25;100.00;52370.22;2096617;28;35069;-64
2023/10/07 00:05:14;;;;;;;15.68;3.45;;;;;;;-146.25;100.00;52343.88;2096710;28;34473;-63
2023/10/07 00:06:17;;;;;;;12.55;2.90;;;;;;;-146.25;100.00;52388.47;2097000;28;34633;-64
2023/10/07 00:07:20;;;;;;;14.02;3.05;;;;;;;-146.25;100.00;52360.09;2097342;28;20040;-64
2023/10/07 00:08:21;;;;;;;18.50;3.60;;;;;;;-146.25;100.00;52374.28;2096708;28;34384;-64
2023/10/07 00:09:23;;;;;;;11.48;3.05;;;;;;;-146.25;100.00;52408.75;2096457;28;30127;-64
2023/10/07 00:10:27;;;;;;;13.65;3.28;;;;;;;-146.25;100.00;52392.53;2097159;28;31283;-64
2023/10/07 00:11:30;;;;;;;10.02;3.35;;;;;;;-146.25;100.00;52429.03;2096561;28;36156;-64
2023/10/07 00:12:35;;;;;;;14.68;3.30;;;;;;;-146.25;100.00;52372.25;2096905;28;32266;-64
2023/10/07 00:13:41;;;;;;;15.88;3.13;;;;;;;-146.25;100.00;52380.38;2096543;28;38064;-64
2023/10/07 00:14:43;;;;;;;11.70;3.22;;;;;;;-146.25;100.00;52349.94;2096650;28;34841;-64
2023/10/07 00:15:51;;;;;;;12.57;2.88;;;;;;;-146.25;100.00;52382.38;2097113;28;20985;-64
2023/10/07 00:16:54;;;;;;;16.40;3.65;;;;;;;-146.25;100.00;52396.59;2096315;28;27701;-64
2023/10/07 00:18:11;;;;;;;10.45;2.95;;;;;;;-146.25;100.00;52376.31;2097194;28;20041;-64
2023/10/07 00:19:13;;;;;;;13.98;3.50;;;;;;;-146.25;100.00;52335.75;2095811;28;35093;-64
2023/10/07 00:20:20;;;;;;;14.68;3.10;;;;;;;-146.25;100.00;52382.38;2096108;28;38262;-64
2023/10/07 00:21:27;;;;;;;15.80;3.35;;;;;;;-146.25;100.00;52364.13;2096672;28;32186;-64
2023/10/07 00:22:40;;;;;;;16.20;3.40;;;;;;;-146.25;100.00;52388.47;2096753;28;38471;-64
2023/10/07 00:23:42;;;;;;;13.38;3.60;;;;;;;-146.25;100.00;52372.25;2095741;28;30705;-64
2023/10/07 00:24:46;;;;;;;12.80;3.10;;;;;;;-146.25;100.00;52366.16;2096698;28;33142;-63
2023/10/07 00:25:53;;;;;;;14.07;3.22;;;;;;;-146.25;100.00;52333.72;2097007;28;20891;-63
2023/10/07 00:26:59;;;;;;;14.23;3.33;;;;;;;-146.25;100.00;52424.97;2096514;28;31144;-64
2023/10/07 00:28:17;;;;;;;13.48;3.03;;;;;;;-146.25;100.00;52372.25;2096658;28;20037;-64
2023/10/07 00:29:23;;;;;;;17.33;3.33;;;;;;;-146.25;100.00;52372.25;2096548;28;27132;-65
2023/10/07 00:30:28;;;;;;;15.18;3.10;;;;;;;-146.25;100.00;52378.34;2097270;28;20041;-64
2023/10/07 00:31:33;;;;;;;15.55;3.42;;;;;;;-146.25;100.00;52386.44;2097204;28;20179;-64
2023/10/07 00:32:38;;;;;;;10.35;3.20;;;;;;;-146.25;100.00;52362.13;2096895;28;20045;-64
2023/10/07 00:34:02;;;;;;;13.82;3.25;;;;;;;-146.25;100.00;52384.41;2096025;28;29424;-64
2023/10/07 00:35:06;;;;;;;16.58;3.22;;;;;;;-146.25;100.00;52402.66;2097188;28;22236;-64
2023/10/07 00:36:10;;;;;;;14.68;3.28;;;;;;;-146.25;100.00;52358.06;2096017;28;24512;-62
2023/10/07 00:37:15;;;;;;;15.40;3.35;;;;;;;-146.25;100.00;52406.72;2096837;28;28629;-64
2023/10/07 00:38:20;;;;;;;13.88;3.50;;;;;;;-146.25;100.00;52351.97;2096561;28;29160;-64
2023/10/07 00:39:22;;;;;;;11.27;2.75;;;;;;;-146.25;100.00;52351.97;2096557;28;31529;-65
2023/10/07 00:40:31;;;;;;;11.43;2.72;;;;;;;-146.25;100.00;52408.75;2095082;28;25894;-63
2023/10/07 00:41:49;;;;;;;17.92;2.83;;;;;;;-146.25;100.00;52392.53;2097805;28;20119;-64
2023/10/07 00:42:52;;;;;;;14.77;3.15;;;;;;;-146.25;100.00;52400.63;2103090;28;20921;-64
2023/10/07 00:43:59;;;;;;;17.13;3.35;;;;;;;-146.25;100.00;52384.41;2096562;28;24714;-63
2023/10/07 00:45:13;;;;;;;15.95;3.30;;;;;;;-146.25;100.00;52380.38;2104187;28;31384;-64
2023/10/07 00:46:28;;;;;;;13.00;2.90;;;;;;;-146.25;100.00;52339.81;2098187;28;20619;-64
2023/10/07 00:47:34;;;;;;;14.07;2.90;;;;;;;-146.25;100.00;52368.19;2089680;28;33887;-64
2023/10/07 00:48:47;;;;;;;12.77;3.40;;;;;;;-146.25;100.00;52366.16;2098746;28;29086;-64
2023/10/07 00:49:54;;;;;;;15.60;3.67;;;;;;;-146.25;100.00;52376.31;2096285;28;20038;-64
2023/10/07 00:50:56;;;;;;;10.55;3.13;;;;;;;-146.25;100.00;52372.25;2096278;28;33655;-64
2023/10/07 00:52:03;;;;;;;10.93;3.65;;;;;;;-146.25;100.00;52394.56;2087971;28;20109;-65
2023/10/07 00:53:08;;;;;;;11.32;3.15;;;;;;;-146.25;100.00;52398.59;2088740;28;20949;-64
2023/10/07 00:55:29;;;;;;;12.60;2.75;;;;;;;-146.25;100.00;52378.34;2096191;28;20096;-64
2023/10/07 00:56:36;;;;;;;16.92;3.50;;;;;;;-146.25;100.00;52384.41;2096468;28;20041;-64
2023/10/07 00:57:47;;;;;;;16.25;3.25;;;;;;;-146.25;100.00;52400.63;2103581;28;25357;-64
2023/10/07 00:58:53;;;;;;;17.75;3.33;;;;;;;-146.25;100.00;52351.97;2096274;28;20134;-63
2023/10/07 00:59:57;;;;;;;12.15;3.05;;;;;;;-146.25;100.00;52422.94;2096119;28;22048;-64
2023/10/07 01:01:05;;;;;;;15.45;3.53;;;;;;;-146.25;100.00;52382.38;2096110;28;20029;-64
2023/10/07 01:02:17;;;;;;;12.95;3.08;;;;;;;-146.25;100.00;52364.13;2096280;28;35676;-64
2023/10/07 01:04:21;;;;;;;13.32;3.55;;;;;;;-146.25;100.00;52376.31;2095822;28;29477;-64
2023/10/07 01:05:27;;;;;;;15.30;3.92;;;;;;;-146.25;100.00;52372.25;2095988;28;20044;-64
2023/10/07 01:06:33;;;;;;;14.93;3.25;;;;;;;-146.25;100.00;52364.13;2097393;28;20102;-64
2023/10/07 01:07:35;;;;;;;14.05;3.92;;;;;;;-146.25;100.00;52398.59;2095921;28;32255;-64
2023/10/07 01:08:44;;;;;;;12.75;3.38;;;;;;;-146.25;100.00;52394.56;2096706;28;20037;-64
2023/10/07 01:09:58;;;;;;;17.45;4.07;;;;;;;-146.25;100.00;52422.94;2103919;28;29855;-64
2023/10/07 01:12:39;;;;;;;19.73;3.65;;;;;;;-146.25;100.00;52368.19;2091500;28;35973;-64
2023/10/07 01:13:56;;;;;;;15.77;3.80;;;;;;;-146.25;100.00;52406.72;2097011;28;20029;-63
2023/10/07 01:14:58;;;;;;;14.68;3.63;;;;;;;-146.25;100.00;52345.91;2096450;28;31380;-65
2023/10/07 01:16:06;;;;;;;24.98;4.60;;;;;;;-146.25;100.00;52378.34;2096348;28;29227;-64
2023/10/07 01:17:14;;;;;;;19.30;5.07;;;;;;;-146.25;100.00;52400.63;2096885;28;20144;-64
2023/10/07 01:18:19;;;;;;;17.88;4.57;;;;;;;-146.25;100.00;52388.47;2096588;28;31362;-64
2023/10/07 01:20:34;;;;;;;18.10;4.57;;;;;;;-146.25;100.00;52402.66;2104111;28;25952;-64
2023/10/07 01:21:53;;;;;;;15.63;4.70;;;;;;;-146.25;100.00;52372.25;2094839;28;26166;-64
2023/10/07 01:23:04;;;;;;;15.57;4.45;;;;;;;-146.25;100.00;52360.09;2098731;28;30945;-64
2023/10/07 01:24:06;;;;;;;14.15;4.00;;;;;;;-146.25;100.00;52364.13;2092851;28;20037;-64
2023/10/07 01:25:09;;;;;;;16.50;4.63;;;;;;;-146.25;100.00;52408.75;2087558;28;28195;-63
2023/10/07 01:26:16;;;;;;;15.68;5.00;;;;;;;-146.25;100.00;52362.13;2087708;28;37438;-64
2023/10/07 01:28:21;;;;;;;20.55;5.25;;;;;;;-146.25;100.00;52349.94;2095514;28;30625;-64
2023/10/07 01:29:23;;;;;;;16.30;5.00;;;;;;;-146.25;100.00;52396.59;2088167;28;26002;-64
2023/10/07 01:30:29;;;;;;;20.05;5.47;;;;;;;-146.25;100.00;52410.78;2088600;28;25594;-63
2023/10/07 01:31:31;;;;;;;27.17;5.57;;;;;;;-146.25;100.00;52372.25;2096115;28;23569;-64
2023/10/07 01:32:48;;;;;;;17.88;5.10;;;;;;;-146.25;100.00;52406.72;2095190;28;32116;-64
2023/10/07 01:33:51;;;;;;;16.38;5.07;;;;;;;-146.25;100.00;52368.19;2088343;28;31736;-65
2023/10/07 01:34:55;;;;;;;17.48;5.45;;;;;;;-146.25;100.00;52378.34;2088182;28;20164;-64
2023/10/07 01:36:10;;;;;;;20.52;5.97;;;;;;;-146.25;100.00;52368.19;2088445;28;20038;-65
2023/10/07 01:37:15;;;;;;;17.85;5.28;;;;;;;-146.25;100.00;52384.41;2088761;28;20045;-64
2023/10/07 01:38:18;;;;;;;17.55;5.05;;;;;;;-146.25;100.00;52356.03;2087868;28;30293;-64
2023/10/07 01:39:22;;;;;;;17.85;5.53;;;;;;;-146.25;100.00;52372.25;2092842;28;20033;-65
2023/10/07 01:40:27;;;;;;;21.63;5.70;;;;;;;-146.25;100.00;52343.88;2094990;28;33714;-64
2023/10/07 01:41:31;;;;;;;22.98;5.82;;;;;;;-146.25;100.00;52356.03;2095769;28;28871;-65
2023/10/07 01:42:37;;;;;;;17.00;5.88;;;;;;;-146.25;100.00;52386.44;2096648;28;20037;-65
2023/10/07 01:43:48;;;;;;;19.60;5.70;;;;;;;-146.25;100.00;52372.25;2096467;28;24118;-65
2023/10/07 01:45:01;;;;;;;19.48;5.47;;;;;;;-146.25;100.00;52364.13;2152663;22;20035;-67
2023/10/07 01:46:07;;;;;;;16.33;5.88;;;;;;;-146.25;100.00;52378.34;2110379;28;31348;-66
2023/10/07 01:47:16;;;;;;;22.25;5.97;;;;;;;-146.25;100.00;52368.19;2095615;28;29202;-67
2023/10/07 01:48:20;;;;;;;19.10;6.35;;;;;;;-146.25;100.00;52339.81;2096545;28;25960;-67
2023/10/07 01:49:22;;;;;;;17.88;6.18;;;;;;;-146.25;100.00;52368.19;2103789;28;20927;-66
2023/10/07 01:50:24;;;;;;;14.80;5.97;;;;;;;-146.25;100.00;52349.94;2095433;28;25659;-67
2023/10/07 01:51:35;;;;;;;19.85;6.22;;;;;;;-146.25;100.00;52354.00;2103960;28;23975;-66
2023/10/07 01:52:38;;;;;;;17.02;5.72;;;;;;;-146.25;100.00;52343.88;2095795;28;23677;-66
2023/10/07 01:53:40;;;;;;;20.27;6.03;;;;;;;-146.25;100.00;52386.44;2096568;28;20041;-67
2023/10/07 01:54:45;;;;;;;22.90;6.18;;;;;;;-146.25;100.00;52354.00;2095934;28;32354;-66
2023/10/07 01:55:47;;;;;;;15.00;6.10;;;;;;;-146.25;100.00;52372.25;2096037;28;20107;-66
2023/10/07 01:56:52;;;;;;;19.08;6.38;;;;;;;-146.25;100.00;52349.94;2087480;28;20060;-68
2023/10/07 01:57:54;;;;;;;18.90;6.38;;;;;;;-146.25;100.00;52376.31;2104020;28;20876;-67
2023/10/07 02:00:38;;;;;;;23.17;6.68;;;;;;;-146.25;100.00;52366.16;2103595;28;20901;-67
2023/10/07 02:01:43;;;;;;;22.95;6.50;;;;;;;-146.25;100.00;52349.94;2090305;28;20138;-68
2023/10/07 02:02:49;;;;;;;22.70;6.18;;;;;;;-146.25;100.00;52347.91;2083211;28;38918;-66
2023/10/07 02:03:51;;;;;;;16.33;5.82;;;;;;;-146.25;100.00;52372.25;2089080;28;36020;-67
2023/10/07 02:04:56;;;;;;;22.63;6.47;;;;;;;-146.25;100.00;52396.59;2104898;28;25703;-68
2023/10/07 02:05:58;;;;;;;19.75;6.30;;;;;;;-146.25;100.00;52354.00;2103514;28;35142;-67
2023/10/07 02:07:00;;;;;;;20.83;6.60;;;;;;;-146.25;100.00;52354.00;2104664;28;20782;-68
2023/10/07 02:08:02;;;;;;;19.67;6.45;;;;;;;-146.25;100.00;52305.34;2104580;28;21417;-67
2023/10/07 02:09:06;;;;;;;24.75;6.72;;;;;;;-146.25;100.00;52372.25;2103821;28;28556;-67
2023/10/07 02:10:20;;;;;;;21.17;6.35;;;;;;;-146.25;100.00;52345.91;2095753;28;20099;-67
2023/10/07 02:11:29;;;;;;;23.45;6.80;;;;;;;-146.25;100.00;52386.44;2097303;28;28912;-67
2023/10/07 02:12:33;;;;;;;17.20;6.13;;;;;;;-146.25;100.00;52384.41;2098339;28;20052;-67
2023/10/07 02:13:35;;;;;;;21.75;7.30;;;;;;;-146.25;100.00;52354.00;2095747;28;20084;-68
2023/10/07 02:14:40;;;;;;;22.58;6.70;;;;;;;-146.25;100.00;52368.19;2103718;28;24970;-68
2023/10/07 02:15:42;;;;;;;22.70;6.97;;;;;;;-146.25;100.00;52356.03;2099003;28;20136;-68
2023/10/07 02:16:44;;;;;;;17.52;6.25;;;;;;;-146.25;100.00;52380.38;2095253;28;26481;-68
2023/10/07 02:17:48;;;;;;;23.88;6.65;;;;;;;-146.25;100.00;52339.81;2096394;28;20076;-68
2023/10/07 02:18:50;;;;;;;20.45;6.63;;;;;;;-146.25;100.00;52364.13;2095806;28;20828;-68
2023/10/07 02:19:53;;;;;;;25.38;6.65;;;;;;;-146.25;100.00;52372.25;2103408;28;29656;-68
2023/10/07 02:21:08;;;;;;;20.05;6.65;;;;;;;-146.25;100.00;52341.84;2103586;28;23998;-68
2023/10/07 02:22:21;;;;;;;18.30;6.25;;;;;;;-146.25;100.00;52364.13;2102814;28;20153;-69
2023/10/07 02:23:37;;;;;;;23.98;6.85;;;;;;;-146.25;100.00;52356.03;2102092;28;32517;-68
2023/10/07 02:24:41;;;;;;;27.00;6.97;;;;;;;-146.25;100.00;52372.25;2104057;28;24438;-69
2023/10/07 02:25:49;;;;;;;20.55;6.63;;;;;;;-146.25;100.00;52368.19;2111259;28;35534;-68
2023/10/07 02:26:54;;;;;;;25.35;7.05;;;;;;;-146.25;100.00;52339.81;2104222;28;20106;-69
2023/10/07 02:27:56;;;;;;;18.92;7.35;;;;;;;-146.25;100.00;52376.31;2103297;28;32944;-69
2023/10/07 02:29:06;;;;;;;21.83;7.00;;;;;;;-146.25;100.00;52372.25;2095861;28;30076;-69
2023/10/07 02:30:19;;;;;;;21.55;7.60;;;;;;;-146.25;100.00;52329.66;2096100;28;26321;-69
2023/10/07 02:31:24;;;;;;;30.40;8.23;;;;;;;-146.25;100.00;52351.97;2087095;28;35286;-68
2023/10/07 02:32:26;;;;;;;21.38;7.10;;;;;;;-146.25;100.00;52329.66;2090062;28;20053;-69
2023/10/07 02:33:29;;;;;;;21.92;7.20;;;;;;;-146.25;100.00;52356.03;2104074;28;20048;-69
2023/10/07 02:34:33;;;;;;;25.27;7.75;;;;;;;-146.25;100.00;52396.59;2087227;28;26493;-69
2023/10/07 02:35:36;;;;;;;18.73;8.05;;;;;;;-146.25;100.00;52358.06;2087479;28;24339;-69
2023/10/07 02:36:50;;;;;;;20.67;7.82;;;;;;;-146.25;100.00;52323.59;2095564;28;32421;-69
2023/10/07 02:37:53;;;;;;;22.42;7.90;;;;;;;-146.25;100.00;52372.25;2103878;28;21015;-70
2023/10/07 02:39:05;;;;;;;23.48;8.30;;;;;;;-146.25;100.00;52303.31;2103227;28;33049;-69
2023/10/07 02:40:21;;;;;;;19.48;8.30;;;;;;;-146.25;100.00;52354.00;2096680;28;20053;-69
2023/10/07 02:41:25;;;;;;;19.92;8.43;;;;;;;-146.25;100.00;52382.38;2095700;28;30599;-69
2023/10/07 02:42:31;;;;;;;20.52;7.85;;;;;;;-146.25;100.00;52325.63;2087119;28;24478;-69
2023/10/07 02:43:35;;;;;;;19.13;8.02;;;;;;;-146.25;100.00;52339.81;2080580;28;22799;-70
2023/10/07 02:44:38;;;;;;;17.50;8.35;;;;;;;-146.25;100.00;52337.78;2094565;28;36567;-69
2023/10/07 02:45:41;;;;;;;17.75;8.52;;;;;;;-146.25;100.00;52329.66;2094990;28;30968;-70
2023/10/07 02:46:50;;;;;;;19.42;7.90;;;;;;;-146.25;100.00;52311.44;2096498;28;20242;-69
2023/10/07 02:47:54;;;;;;;18.52;8.70;;;;;;;-146.25;100.00;52331.69;2095198;28;26025;-69
2023/10/07 02:49:05;;;;;;;18.02;8.90;;;;;;;-146.25;100.00;52378.34;2096103;28;22561;-69
2023/10/07 02:50:08;;;;;;;22.58;8.45;;;;;;;-146.25;100.00;52384.41;2095904;28;33248;-69
2023/10/07 02:51:11;;;;;;;18.50;8.57;;;;;;;-146.25;100.00;52349.94;2098891;28;20048;-69
2023/10/07 02:52:16;;;;;;;18.88;8.32;;;;;;;-146.25;100.00;52345.91;2103198;28;28596;-69
2023/10/07 02:53:19;;;;;;;16.73;8.82;;;;;;;-146.25;100.00;52354.00;2103231;28;25497;-70
2023/10/07 02:54:21;;;;;;;18.58;8.95;;;;;;;-146.25;100.00;52341.84;2096134;28;28593;-69
2023/10/07 02:56:28;;;;;;;19.13;9.32;;;;;;;-146.25;100.00;52358.06;2095980;28;20037;-69
2023/10/07 02:57:34;;;;;;;18.05;9.05;;;;;;;-146.25;100.00;52323.59;2106944;28;20047;-69
2023/10/07 02:58:41;;;;;;;17.70;9.05;;;;;;;-146.25;100.00;52335.75;2111544;28;23165;-69
2023/10/07 02:59:50;;;;;;;19.85;9.25;;;;;;;-146.25;100.00;52368.19;2096237;28;30531;-68
2023/10/07 03:00:52;;;;;;;21.67;9.55;;;;;;;-146.25;100.00;52335.75;2097553;28;33714;-69
2023/10/07 03:03:38;;;;;;;17.48;9.30;;;;;;;-146.25;100.00;52364.13;2105975;28;20059;-67
2023/10/07 03:04:44;;;;;;;23.88;10.35;;;;;;;-146.25;100.00;52368.19;2101590;28;31535;-68
2023/10/07 03:05:49;;;;;;;21.15;10.50;;;;;;;-146.25;100.00;52370.22;2104838;28;34596;-68
2023/10/07 03:06:52;;;;;;;23.67;10.52;;;;;;;-146.25;100.00;52364.13;2104029;28;33769;-68
2023/10/07 03:08:06;;;;;;;21.67;10.80;;;;;;;-146.25;100.00;52349.94;2104587;28;30250;-69
2023/10/07 03:09:18;;;;;;;20.40;10.00;;;;;;;-146.25;100.00;52354.00;2096910;28;30301;-68
2023/10/07 03:11:48;;;;;;;19.58;9.60;;;;;;;-146.25;100.00;52345.91;2097699;28;23538;-67
2023/10/07 03:12:58;;;;;;;18.92;10.65;;;;;;;-146.25;100.00;52317.50;2097249;28;32362;-67
2023/10/07 03:14:02;;;;;;;25.10;10.75;;;;;;;-146.25;100.00;52347.91;2105327;28;20481;-67
2023/10/07 03:15:20;;;;;;;23.08;10.25;;;;;;;-146.25;100.00;52351.97;2103340;28;30989;-67
2023/10/07 03:17:33;;;;;;;22.55;10.73;;;;;;;-146.25;100.00;52370.22;2103262;28;20107;-67
2023/10/07 03:18:38;;;;;;;29.50;11.32;;;;;;;-146.25;100.00;52335.75;2106350;28;20865;-66
2023/10/07 03:19:52;;;;;;;24.67;11.48;;;;;;;-146.25;100.00;52351.97;2105297;28;29572;-67
2023/10/07 03:21:06;;;;;;;22.40;10.80;;;;;;;-146.25;100.00;52341.84;2104742;28;36770;-67
2023/10/07 03:22:15;;;;;;;24.92;10.25;;;;;;;-146.25;100.00;52386.44;2089940;28;28799;-68
2023/10/07 03:23:26;;;;;;;21.30;9.90;;;;;;;-146.25;100.00;52333.72;2099673;28;32992;-67
2023/10/07 03:24:39;;;;;;;26.25;10.65;;;;;;;-146.25;100.00;52349.94;2105048;28;32907;-67
2023/10/07 03:27:05;;;;;;;26.63;11.00;;;;;;;-146.25;100.00;52337.78;2105948;28;33423;-67
2023/10/07 03:28:16;;;;;;;23.85;11.02;;;;;;;-146.25;100.00;52337.78;2105406;28;39606;-67
2023/10/07 03:29:30;;;;;;;23.30;10.75;;;;;;;-146.25;100.00;52368.19;2104805;28;33403;-66
2023/10/07 03:30:36;;;;;;;22.73;10.60;;;;;;;-146.25;100.00;52343.88;2104800;28;34601;-67
2023/10/07 03:32:55;;;;;;;24.63;11.10;;;;;;;-146.25;100.00;52372.25;2104582;28;33538;-66
2023/10/07 03:33:58;;;;;;;23.20;11.30;;;;;;;-146.25;100.00;52356.03;2105183;28;36481;-66
2023/10/07 03:35:01;;;;;;;26.08;11.00;;;;;;;-146.25;100.00;52380.38;2105138;28;32390;-66
2023/10/07 03:38:12;;;;;;;20.65;9.85;;;;;;;-146.25;100.00;52372.25;2105183;28;37175;-67
2023/10/07 03:40:34;;;;;;;25.65;10.50;;;;;;;-146.25;100.00;52366.16;2104762;28;30059;-67
2023/10/07 03:41:47;;;;;;;25.92;10.63;;;;;;;-146.25;100.00;52372.25;2105504;28;36899;-66
2023/10/07 03:42:51;;;;;;;27.40;11.10;;;;;;;-146.25;100.00;52364.13;2105993;28;20875;-67
2023/10/07 03:43:53;;;;;;;21.50;10.45;;;;;;;-146.25;100.00;52347.91;2105669;28;20079;-68
2023/10/07 03:44:57;;;;;;;27.95;10.68;;;;;;;-146.25;100.00;52378.34;2104940;28;36232;-67
2023/10/07 03:45:58;;;;;;;22.40;11.32;;;;;;;-146.25;100.00;52317.50;2104964;28;33168;-66
2023/10/07 03:47:00;;;;;;;26.20;10.30;;;;;;;-146.25;100.00;52339.81;2105183;28;36074;-68
2023/10/07 03:48:20;;;;;;;25.27;10.75;;;;;;;-146.25;100.00;52339.81;2105100;28;38475;-66
2023/10/07 03:49:23;;;;;;;30.38;10.45;;;;;;;-146.25;100.00;52366.16;2105073;28;20072;-65
2023/10/07 03:50:34;;;;;;;23.30;10.35;;;;;;;-146.25;100.00;52319.53;2104027;28;35414;-67
2023/10/07 03:51:36;;;;;;;29.60;10.65;;;;;;;-146.25;100.00;52319.53;2105127;28;36075;-66
2023/10/07 03:52:38;;;;;;;31.08;10.40;;;;;;;-146.25;100.00;52347.91;2105238;28;34808;-67
2023/10/07 03:53:46;;;;;;;20.75;9.85;;;;;;;-146.25;100.00;52331.69;2105379;28;36821;-66
2023/10/07 03:54:48;;;;;;;25.52;9.80;;;;;;;-146.25;100.00;52349.94;2105264;28;32986;-66
2023/10/07 03:55:51;;;;;;;29.05;10.02;;;;;;;-146.25;100.00;52339.81;2104281;28;37716;-65
2023/10/07 03:56:57;;;;;;;27.00;10.30;;;;;;;-146.25;100.00;52335.75;2104679;28;32296;-66
2023/10/07 03:57:59;;;;;;;18.85;9.40;;;;;;;-146.25;100.00;52337.78;2105113;28;35727;-66
2023/10/07 03:59:01;;;;;;;22.38;9.50;;;;;;;-146.25;100.00;52372.25;2105419;28;34650;-66
2023/10/07 04:00:10;;;;;;;24.30;9.82;;;;;;;-146.25;100.00;52339.81;2105719;28;20040;-66
2023/10/07 04:01:17;;;;;;;18.90;8.95;;;;;;;-146.25;100.00;52368.19;2105684;28;20045;-66
2023/10/07 04:03:35;;;;;;;25.80;9.68;;;;;;;-146.25;100.00;52337.78;2097949;28;40152;-66
2023/10/07 04:04:37;;;;;;;28.45;9.52;;;;;;;-146.25;100.00;52400.63;2104801;28;34743;-66
2023/10/07 04:05:45;;;;;;;25.42;9.68;;;;;;;-146.25;100.00;52356.03;2105515;28;21007;-66
2023/10/07 04:06:50;;;;;;;18.33;8.63;;;;;;;-146.25;100.00;52337.78;2104390;28;36756;-66
2023/10/07 04:07:52;;;;;;;29.15;8.95;;;;;;;-146.25;100.00;52313.44;2104583;28;35014;-66
2023/10/07 04:08:56;;;;;;;23.45;9.18;;;;;;;-146.25;100.00;52347.91;2105751;28;20094;-66
2023/10/07 04:11:19;;;;;;;28.23;9.52;;;;;;;-146.25;100.00;52360.09;2104379;28;36488;-66
2023/10/07 04:12:22;;;;;;;18.63;8.27;;;;;;;-146.25;100.00;52380.38;2105478;28;34597;-66
2023/10/07 04:13:24;;;;;;;23.70;9.55;;;;;;;-146.25;100.00;52376.31;2104853;28;36755;-67
2023/10/07 04:14:30;;;;;;;25.20;8.25;;;;;;;-146.25;100.00;52337.78;2104802;28;34455;-66
2023/10/07 04:15:44;;;;;;;27.80;8.85;;;;;;;-146.25;100.00;52388.47;2105145;28;37209;-67
2023/10/07 04:16:49;;;;;;;23.95;9.25;;;;;;;-146.25;100.00;52380.38;2104798;28;31376;-66
2023/10/07 04:17:52;;;;;;;21.95;8.82;;;;;;;-146.25;100.00;52356.03;2105558;28;20040;-67
2023/10/07 04:19:30;;;;;;;22.48;8.48;;;;;;;-146.25;100.00;52356.03;2104880;28;35233;-66
2023/10/07 04:21:52;;;;;;;;;;;;;;;-146.25;100.00;52370.22;2105536;28;36880;-66
2023/10/07 04:23:02;;;;;;;23.48;9.38;;;;;;;-146.25;100.00;52374.28;2106288;28;20871;-65
2023/10/07 04:24:05;;;;;;;26.25;10.10;;;;;;;-146.25;100.00;52351.97;2104941;28;35337;-67
2023/10/07 04:25:17;;;;;;;28.05;10.40;;;;;;;-146.25;100.00;52364.13;2105183;28;33081;-65
2023/10/07 04:26:20;;;;;;;29.98;10.48;;;;;;;-146.25;100.00;52343.88;2104307;28;35381;-65
2023/10/07 04:27:22;;;;;;;25.63;9.32;;;;;;;-146.25;100.00;52345.91;2104565;28;38619;-66
2023/10/07 04:28:26;;;;;;;25.10;9.88;;;;;;;-146.25;100.00;52358.06;2105530;28;20159;-65
2023/10/07 04:29:29;;;;;;;27.05;9.32;;;;;;;-146.25;100.00;52368.19;2104027;28;38742;-65
2023/10/07 04:30:39;;;;;;;23.45;9.60;;;;;;;-146.25;100.00;52384.41;2105377;28;33160;-66
2023/10/07 04:31:54;;;;;;;23.65;8.95;;;;;;;-146.25;100.00;52341.84;2104236;28;34944;-65
2023/10/07 04:33:00;;;;;;;19.75;8.98;;;;;;;-146.25;100.00;52364.13;2105023;28;35501;-66
2023/10/07 04:34:12;;;;;;;20.63;8.55;;;;;;;-146.25;100.00;52364.13;2104417;28;36050;-65
2023/10/07 04:35:20;;;;;;;24.65;8.60;;;;;;;-146.25;100.00;52341.84;2104479;28;38493;-66
2023/10/07 04:36:33;;;;;;;21.13;8.93;;;;;;;-146.25;100.00;52362.13;2105942;28;20048;-66
2023/10/07 04:37:54;;;;;;;25.77;8.85;;;;;;;-146.25;100.00;52347.91;2104966;28;38800;-66
2023/10/07 04:38:59;;;;;;;23.73;7.85;;;;;;;-146.25;100.00;52368.19;2106245;28;20041;-65
2023/10/07 04:42:35;;;;;;;20.73;6.90;;;;;;;-146.25;100.00;52351.97;2104596;28;36190;-65
2023/10/07 04:43:37;;;;;;;20.65;7.63;;;;;;;-146.25;100.00;52358.06;2104199;28;37070;-66
2023/10/07 04:45:50;;;;;;;22.13;7.45;;;;;;;-146.25;100.00;52382.38;2105247;28;35484;-66
2023/10/07 04:46:58;;;;;;;16.73;7.13;;;;;;;-146.25;100.00;52364.13;2096423;28;20051;-66
2023/10/07 04:48:23;;;;;;;20.38;7.30;;;;;;;-146.25;100.00;52319.53;2097172;28;35971;-66
2023/10/07 04:49:37;;;;;;;20.13;6.65;;;;;;;-146.25;100.00;52354.00;2102015;28;37029;-66
2023/10/07 04:50:41;;;;;;;20.98;6.90;;;;;;;-146.25;100.00;52364.13;2104466;28;38419;-66
2023/10/07 04:52:51;;;;;;;25.15;7.30;;;;;;;-146.25;100.00;52349.94;2104646;28;33267;-66
2023/10/07 04:53:57;;;;;;;20.35;6.38;;;;;;;-146.25;100.00;52335.75;2104474;28;37607;-66
2023/10/07 04:55:01;;;;;;;16.83;6.70;;;;;;;-146.25;100.00;52343.88;2104280;28;34161;-67
2023/10/07 04:56:07;;;;;;;17.77;6.40;;;;;;;-146.25;100.00;52364.13;2095371;28;33816;-66
2023/10/07 04:57:17;;;;;;;16.70;6.47;;;;;;;-146.25;100.00;52343.88;2089299;28;35343;-67
2023/10/07 04:58:19;;;;;;;19.25;6.85;;;;;;;-146.25;100.00;52354.00;2104766;28;20039;-66
2023/10/07 04:59:21;;;;;;;24.92;7.05;;;;;;;-146.25;100.00;52347.91;2104764;28;37819;-67
2023/10/07 05:01:34;;;;;;;18.95;6.88;;;;;;;-146.25;100.00;52368.19;2105494;28;20037;-65
2023/10/07 05:02:38;;;;;;;20.45;6.85;;;;;;;-146.25;100.00;52376.31;2105073;28;34561;-66
2023/10/07 05:03:40;;;;;;;24.55;6.97;;;;;;;-146.25;100.00;52364.13;2104722;28;32710;-66
2023/10/07 05:04:48;;;;;;;19.02;6.40;;;;;;;-146.25;100.00;52339.81;2105837;28;20044;-66
2023/10/07 05:05:50;;;;;;;19.17;6.80;;;;;;;-146.25;100.00;52362.13;2104947;28;36077;-66
2023/10/07 05:06:53;;;;;;;20.50;7.20;;;;;;;-146.25;100.00;52313.44;2104872;28;32909;-66
2023/10/07 05:08:10;;;;;;;21.50;7.65;;;;;;;-146.25;100.00;52339.81;2096656;28;35134;-66
2023/10/07 05:09:18;;;;;;;19.73;6.45;;;;;;;-146.25;100.00;52368.19;2103022;28;32096;-66
2023/10/07 05:10:20;;;;;;;21.20;6.57;;;;;;;-146.25;100.00;52343.88;2104218;28;32020;-67
2023/10/07 05:11:26;;;;;;;22.23;6.78;;;;;;;-146.25;100.00;52333.72;2104488;28;35945;-66
2023/10/07 05:12:28;;;;;;;22.48;7.00;;;;;;;-146.25;100.00;52354.00;2105364;28;20045;-66
2023/10/07 05:13:35;;;;;;;21.75;6.80;;;;;;;-146.25;100.00;52380.38;2104615;28;31573;-66
2023/10/07 05:14:36;;;;;;;23.27;7.22;;;;;;;-146.25;100.00;52370.22;2105233;28;32864;-66
2023/10/07 05:15:41;;;;;;;20.42;6.80;;;;;;;-146.25;100.00;52349.94;2104454;28;37342;-66
2023/10/07 05:16:46;;;;;;;20.75;6.63;;;;;;;-146.25;100.00;52364.13;2104618;28;34437;-66
2023/10/07 05:17:52;;;;;;;22.60;7.00;;;;;;;-146.25;100.00;52360.09;2104685;28;35464;-67
2023/10/07 05:18:54;;;;;;;16.00;6.47;;;;;;;-146.25;100.00;52364.13;2098949;28;37835;-66
2023/10/07 05:19:58;;;;;;;24.20;7.45;;;;;;;-146.25;100.00;52372.25;2104168;28;20171;-66
2023/10/07 05:21:00;;;;;;;19.88;7.07;;;;;;;-146.25;100.00;52335.75;2104189;28;37472;-67
2023/10/07 05:22:18;;;;;;;18.95;6.95;;;;;;;-146.25;100.00;52398.59;2104647;28;31552;-65
2023/10/07 05:23:21;;;;;;;15.48;6.90;;;;;;;-146.25;100.00;52362.13;2104348;28;34911;-67
2023/10/07 05:24:28;;;;;;;22.83;7.13;;;;;;;-146.25;100.00;52372.25;2104475;28;35703;-67
2023/10/07 05:25:38;;;;;;;18.48;6.70;;;;;;;-146.25;100.00;52341.84;2096079;28;33918;-66
2023/10/07 05:26:43;;;;;;;23.52;7.13;;;;;;;-146.25;100.00;52376.31;2097058;28;20167;-66
2023/10/07 05:27:47;;;;;;;20.35;7.22;;;;;;;-146.25;100.00;52349.94;2096524;28;32181;-66